createdAt,value
2023-01-29T00:00:03.377Z,96834.09
2023-01-29T00:02:30.031Z,96838.94
2023-01-29T00:08:12.038Z,96829.34
2023-01-29T00:10:38.684Z,96832.47
2023-01-29T00:13:05.437Z,96823.56
2023-01-29T00:15:32.015Z,96833.03
2023-01-29T00:17:58.796Z,96837.03
2023-01-29T00:20:25.338Z,96829.13
2023-01-29T00:22:51.861Z,96824.34
2023-01-29T00:25:19.333Z,96824.34
2023-01-29T00:27:45.913Z,96822.72
2023-01-29T00:30:12.443Z,96828.22
2023-01-29T00:32:39.089Z,96828.03
2023-01-29T00:35:05.872Z,96822.50
2023-01-29T00:37:32.718Z,96821.09
2023-01-29T00:39:59.421Z,96829.00
2023-01-29T00:42:26.024Z,96820.53
2023-01-29T00:44:52.461Z,96816.53
2023-01-29T00:47:19.291Z,96817.69
2023-01-29T00:49:48.039Z,96823.19
2023-01-29T01:03:28.958Z,96819.66
2023-01-29T01:06:01.069Z,96831.44
2023-01-29T01:08:27.981Z,96835.25
2023-01-29T01:10:54.793Z,96843.03
2023-01-29T01:13:23.285Z,96829.88
2023-01-29T01:15:50.031Z,96834.31
2023-01-29T01:18:17.465Z,96829.75
2023-01-29T01:20:44.281Z,96834.88
2023-01-29T01:23:11.105Z,96844.88
2023-01-29T01:25:39.811Z,96835.53
2023-01-29T01:28:07.032Z,96851.16
2023-01-29T01:30:33.736Z,96855.25
2023-01-29T01:33:00.524Z,96852.75
2023-01-29T01:35:27.130Z,96856.06
2023-01-29T01:37:53.950Z,96852.19
2023-01-29T01:42:49.319Z,96857.41
2023-01-29T01:45:15.926Z,96850.59
2023-01-29T01:47:42.803Z,96863.66
2023-01-29T01:50:09.232Z,96859.88
2023-01-29T01:52:37.931Z,96859.47
2023-01-29T01:55:04.769Z,96869.81
2023-01-29T01:57:31.363Z,96872.38
2023-01-29T01:59:58.226Z,96873.81
2023-01-29T02:02:27.336Z,96879.59
2023-01-29T02:04:54.241Z,96876.19
2023-01-29T02:07:20.806Z,96880.59
2023-01-29T02:09:47.506Z,96883.63
2023-01-29T02:12:14.340Z,96879.22
2023-01-29T02:14:40.935Z,96894.69
2023-01-29T02:17:14.803Z,96903.31
2023-01-29T02:19:41.448Z,96895.34
2023-01-29T02:22:08.158Z,96886.41
2023-01-29T02:24:36.291Z,96907.84
2023-01-29T02:27:03.221Z,96917.19
2023-01-29T02:29:29.846Z,96907.59
2023-01-29T02:31:56.370Z,96926.09
2023-01-29T02:34:23.171Z,96923.19
2023-01-29T02:36:49.699Z,96935.91
2023-01-29T02:39:16.566Z,96946.56
2023-01-29T02:41:45.486Z,96931.63
2023-01-29T02:44:12.323Z,96934.97
2023-01-29T02:46:39.003Z,96934.44
2023-01-29T02:49:05.481Z,96934.06
2023-01-29T02:51:34.046Z,96929.06
2023-01-29T02:54:00.639Z,96941.13
2023-01-29T02:56:27.188Z,96938.00
2023-01-29T02:58:54.027Z,96944.94
2023-01-29T03:01:20.627Z,96939.13
2023-01-29T03:03:47.282Z,96934.44
2023-01-29T03:06:14.148Z,96939.16
2023-01-29T03:08:40.684Z,96933.72
2023-01-29T03:11:07.273Z,96944.78
2023-01-29T03:13:33.782Z,96939.31
2023-01-29T03:16:00.650Z,96931.59
2023-01-29T03:18:27.474Z,96939.63
2023-01-29T03:20:54.248Z,96939.41
2023-01-29T03:23:21.071Z,96934.25
2023-01-29T03:25:47.961Z,96934.84
2023-01-29T03:28:14.729Z,96935.78
2023-01-29T03:30:41.427Z,96940.19
2023-01-29T03:33:08.194Z,96934.47
2023-01-29T03:35:34.704Z,96933.50
2023-01-29T03:38:01.256Z,96932.16
2023-01-29T03:40:28.527Z,96927.97
2023-01-29T03:42:59.077Z,96947.94
2023-01-29T03:45:25.637Z,96945.13
2023-01-29T03:47:52.203Z,96936.06
2023-01-29T03:50:19.029Z,96940.97
2023-01-29T03:52:45.817Z,96938.31
2023-01-29T03:55:12.501Z,96938.78
2023-01-29T03:57:41.464Z,96939.38
2023-01-29T04:00:08.049Z,96942.50
2023-01-29T04:02:34.868Z,96940.56
2023-01-29T04:05:01.730Z,96935.41
2023-01-29T04:07:28.789Z,96934.38
2023-01-29T04:09:56.237Z,96934.47
2023-01-29T04:12:23.459Z,96936.41
2023-01-29T04:14:49.987Z,96923.91
2023-01-29T04:17:18.493Z,96928.22
2023-01-29T04:19:45.004Z,96930.41
2023-01-29T04:22:11.721Z,96940.34
2023-01-29T04:24:40.703Z,96937.75
2023-01-29T04:27:09.102Z,96927.28
2023-01-29T04:29:35.647Z,96938.16
2023-01-29T04:32:02.463Z,96934.53
2023-01-29T04:34:30.042Z,96935.59
2023-01-29T04:36:56.928Z,96929.09
2023-01-29T04:39:23.465Z,96944.06
2023-01-29T04:41:50.800Z,96936.69
2023-01-29T04:44:17.425Z,96919.41
2023-01-29T04:46:44.257Z,96926.09
2023-01-29T04:52:27.478Z,96932.25
2023-01-29T04:54:54.181Z,96930.09
2023-01-29T04:57:20.885Z,96925.78
2023-01-29T04:59:47.676Z,96924.34
2023-01-29T05:02:14.229Z,96922.63
2023-01-29T05:04:43.470Z,96930.28
2023-01-29T05:07:10.310Z,96937.78
2023-01-29T05:09:37.660Z,96940.09
2023-01-29T05:12:04.453Z,96938.84
2023-01-29T05:14:31.416Z,96952.47
2023-01-29T05:16:58.031Z,96939.63
2023-01-29T05:19:24.797Z,96950.19
2023-01-29T05:21:52.452Z,96944.06
2023-01-29T05:24:19.335Z,96944.84
2023-01-29T05:26:47.826Z,96955.19
2023-01-29T05:29:14.765Z,96955.66
2023-01-29T05:31:41.411Z,96957.56
2023-01-29T05:34:08.236Z,96959.84
2023-01-29T05:36:34.895Z,96966.38
2023-01-29T05:39:04.158Z,96964.00
2023-01-29T05:41:30.759Z,96970.28
2023-01-29T05:44:00.255Z,96970.13
2023-01-29T05:46:27.439Z,96987.97
2023-01-29T05:48:56.580Z,96981.53
2023-01-29T05:51:23.388Z,96999.84
2023-01-29T05:53:50.240Z,96991.13
2023-01-29T05:56:17.157Z,96999.81
2023-01-29T05:58:46.146Z,97002.88
2023-01-29T06:01:13.452Z,97014.53
2023-01-29T06:03:40.067Z,97010.03
2023-01-29T06:06:08.995Z,97018.22
2023-01-29T06:08:35.754Z,97029.03
2023-01-29T06:11:02.553Z,97026.84
2023-01-29T06:13:29.774Z,97018.78
2023-01-29T06:15:56.450Z,97028.59
2023-01-29T06:18:23.840Z,97023.66
2023-01-29T06:20:50.438Z,97034.91
2023-01-29T06:23:17.260Z,97036.06
2023-01-29T06:25:44.063Z,97038.25
2023-01-29T06:28:10.908Z,97039.00
2023-01-29T06:30:39.804Z,97047.50
2023-01-29T06:33:08.757Z,97060.00
2023-01-29T06:35:35.584Z,97063.59
2023-01-29T06:38:04.573Z,97064.22
2023-01-29T06:40:32.629Z,97071.59
2023-01-29T06:42:59.929Z,97065.03
2023-01-29T06:45:27.031Z,97075.41
2023-01-29T06:47:53.701Z,97077.19
2023-01-29T06:50:20.437Z,97077.00
2023-01-29T06:52:49.297Z,97076.47
2023-01-29T06:55:15.995Z,97080.81
2023-01-29T06:57:43.025Z,97087.28
2023-01-29T07:00:09.774Z,97075.88
2023-01-29T07:02:40.826Z,97069.41
2023-01-29T07:05:07.574Z,97074.47
2023-01-29T07:07:34.390Z,97081.22
2023-01-29T07:10:01.922Z,97086.53
2023-01-29T07:12:28.686Z,97093.75
2023-01-29T07:14:57.621Z,97096.25
2023-01-29T07:17:24.434Z,97106.34
2023-01-29T07:19:51.799Z,97099.78
2023-01-29T07:22:18.642Z,97094.31
2023-01-29T07:24:45.209Z,97098.66
2023-01-29T07:27:12.805Z,97097.28
2023-01-29T07:29:39.524Z,97087.41
2023-01-29T07:32:06.043Z,97090.06
2023-01-29T07:34:32.896Z,97098.13
2023-01-29T07:36:59.609Z,97092.03
2023-01-29T07:42:15.249Z,97079.00
2023-01-29T07:44:44.345Z,97081.72
2023-01-29T07:47:11.046Z,97076.41
2023-01-29T07:49:38.885Z,97074.28
2023-01-29T07:52:05.741Z,97076.75
2023-01-29T07:54:32.231Z,97078.47
2023-01-29T07:57:00.924Z,97073.78
2023-01-29T08:02:30.545Z,97077.31
2023-01-29T08:04:57.451Z,97081.88
2023-01-29T08:07:24.014Z,97070.94
2023-01-29T08:09:51.352Z,97072.50
2023-01-29T08:12:20.236Z,97065.75
2023-01-29T08:14:46.793Z,97080.47
2023-01-29T08:17:15.732Z,97091.31
2023-01-29T08:19:42.376Z,97091.56
2023-01-29T08:22:08.969Z,97082.00
2023-01-29T08:24:47.926Z,97085.78
2023-01-29T08:27:20.873Z,97088.16
2023-01-29T08:29:47.739Z,97097.38
2023-01-29T08:32:14.898Z,97094.81
2023-01-29T08:34:41.488Z,97096.28
2023-01-29T08:37:08.365Z,97093.75
2023-01-29T08:39:35.186Z,97095.72
2023-01-29T08:42:02.760Z,97095.72
2023-01-29T08:44:34.206Z,97097.84
2023-01-29T08:47:00.920Z,97100.75
2023-01-29T08:49:27.623Z,97096.50
2023-01-29T08:51:54.307Z,97105.06
2023-01-29T08:54:23.822Z,97109.00
2023-01-29T08:56:50.502Z,97109.94
2023-01-29T08:59:17.305Z,97116.34
2023-01-29T09:01:44.189Z,97117.75
2023-01-29T09:07:12.821Z,97106.09
2023-01-29T09:09:39.421Z,97109.19
2023-01-29T09:12:06.032Z,97107.88
2023-01-29T09:14:32.876Z,97103.31
2023-01-29T09:16:59.716Z,97107.31
2023-01-29T09:19:28.737Z,97111.97
2023-01-29T09:21:55.814Z,97111.47
2023-01-29T09:24:22.331Z,97116.09
2023-01-29T09:26:50.232Z,97114.44
2023-01-29T09:29:17.013Z,97113.66
2023-01-29T09:31:43.708Z,97119.78
2023-01-29T09:34:10.459Z,97127.97
2023-01-29T09:36:39.438Z,97122.06
2023-01-29T09:39:09.281Z,97121.22
2023-01-29T09:41:36.108Z,97125.78
2023-01-29T09:44:02.926Z,97131.66
2023-01-29T09:46:29.805Z,97141.88
2023-01-29T09:48:56.527Z,97137.75
2023-01-29T09:51:23.435Z,97139.88
2023-01-29T09:53:50.114Z,97154.44
2023-01-29T09:56:17.395Z,97159.94
2023-01-29T09:58:44.011Z,97155.47
2023-01-29T10:01:10.687Z,97157.06
2023-01-29T10:03:38.178Z,97167.91
2023-01-29T10:06:04.691Z,97169.19
2023-01-29T10:08:31.640Z,97169.00
2023-01-29T10:10:58.370Z,97177.84
2023-01-29T10:13:26.313Z,97176.41
2023-01-29T10:15:52.913Z,97177.31
2023-01-29T10:18:19.729Z,97175.13
2023-01-29T10:20:46.397Z,97185.47
2023-01-29T10:23:13.013Z,97186.66
2023-01-29T10:25:39.518Z,97182.56
2023-01-29T10:28:05.973Z,97182.44
2023-01-29T10:30:34.961Z,97180.22
2023-01-29T10:33:02.473Z,97177.81
2023-01-29T10:35:29.297Z,97185.16
2023-01-29T10:37:55.819Z,97177.34
2023-01-29T10:40:22.367Z,97176.91
2023-01-29T10:42:49.138Z,97174.19
2023-01-29T10:45:16.045Z,97180.59
2023-01-29T10:47:43.335Z,97179.59
2023-01-29T10:50:10.109Z,97172.50
2023-01-29T10:52:36.896Z,97178.69
2023-01-29T10:55:03.598Z,97179.38
2023-01-29T10:57:30.192Z,97176.09
2023-01-29T10:59:57.226Z,97172.56
2023-01-29T11:02:23.852Z,97179.81
2023-01-29T11:04:51.275Z,97169.84
2023-01-29T11:07:18.022Z,97175.22
2023-01-29T11:09:47.478Z,97170.78
2023-01-29T11:12:14.179Z,97169.09
2023-01-29T11:14:41.073Z,97168.28
2023-01-29T11:17:08.627Z,97165.19
2023-01-29T11:19:35.144Z,97164.78
2023-01-29T11:22:01.917Z,97173.13
2023-01-29T11:24:28.690Z,97163.88
2023-01-29T11:26:55.492Z,97165.59
2023-01-29T11:29:22.209Z,97171.72
2023-01-29T11:31:48.852Z,97163.47
2023-01-29T11:34:15.414Z,97164.72
2023-01-29T11:36:41.952Z,97159.31
2023-01-29T11:39:08.767Z,97162.00
2023-01-29T11:41:36.404Z,97163.69
2023-01-29T11:44:03.144Z,97157.50
2023-01-29T11:46:29.830Z,97154.22
2023-01-29T11:48:59.265Z,97151.31
2023-01-29T11:51:32.529Z,97140.81
2023-01-29T11:53:59.397Z,97148.56
2023-01-29T11:56:26.680Z,97145.44
2023-01-29T11:58:53.433Z,97151.47
2023-01-29T12:01:20.012Z,97148.22
2023-01-29T12:03:46.633Z,97141.97
2023-01-29T12:09:08.363Z,97140.56
2023-01-29T12:11:37.232Z,97141.94
2023-01-29T12:14:07.565Z,97136.19
2023-01-29T12:16:34.582Z,97133.59
2023-01-29T12:19:01.139Z,97130.94
2023-01-29T12:21:28.711Z,97129.66
2023-01-29T12:23:56.003Z,97129.88
2023-01-29T12:26:22.669Z,97128.00
2023-01-29T12:28:49.767Z,97120.13
2023-01-29T12:31:16.326Z,97115.34
2023-01-29T12:33:42.882Z,97114.78
2023-01-29T12:36:10.964Z,97110.41
2023-01-29T12:38:37.694Z,97111.41
2023-01-29T12:41:04.206Z,97107.34
2023-01-29T12:43:32.821Z,97101.94
2023-01-29T12:46:00.424Z,97100.69
2023-01-29T12:48:27.869Z,97094.41
2023-01-29T12:50:55.347Z,97103.38
2023-01-29T12:53:22.685Z,97096.13
2023-01-29T12:55:49.754Z,97093.69
2023-01-29T12:58:16.773Z,97089.31
2023-01-29T13:00:44.161Z,97086.34
2023-01-29T13:03:10.813Z,97085.59
2023-01-29T13:08:55.099Z,97084.63
2023-01-29T13:14:14.906Z,97087.78
2023-01-29T13:19:56.579Z,97076.78
2023-01-29T13:22:25.850Z,97081.63
2023-01-29T13:25:04.309Z,97087.16
2023-01-29T13:27:31.984Z,97079.75
2023-01-29T13:29:58.504Z,97090.00
2023-01-29T13:32:24.993Z,97089.88
2023-01-29T13:34:51.578Z,97081.91
2023-01-29T13:37:18.115Z,97084.72
2023-01-29T13:39:44.615Z,97082.56
2023-01-29T13:42:11.345Z,97089.63
2023-01-29T13:44:38.166Z,97090.84
2023-01-29T13:47:04.756Z,97094.75
2023-01-29T13:49:31.283Z,97095.78
2023-01-29T13:51:58.108Z,97084.72
2023-01-29T13:54:25.008Z,97082.84
2023-01-29T13:56:51.878Z,97083.59
2023-01-29T13:59:18.654Z,97093.22
2023-01-29T14:01:45.255Z,97087.03
2023-01-29T14:04:12.042Z,97078.84
2023-01-29T14:06:38.576Z,97084.09
2023-01-29T14:09:05.180Z,97090.91
2023-01-29T14:11:32.630Z,97085.50
2023-01-29T14:16:49.250Z,97084.41
2023-01-29T14:19:18.484Z,97091.72
2023-01-29T14:21:47.074Z,97091.00
2023-01-29T14:24:13.925Z,97097.81
2023-01-29T14:26:43.588Z,97096.78
2023-01-29T14:29:10.250Z,97092.69
2023-01-29T14:31:36.879Z,97094.13
2023-01-29T14:34:03.573Z,97095.41
2023-01-29T14:36:30.087Z,97094.88
2023-01-29T14:39:01.847Z,97100.16
2023-01-29T14:41:32.917Z,97102.91
2023-01-29T14:43:59.472Z,97103.22
2023-01-29T14:46:26.308Z,97094.47
2023-01-29T14:48:53.851Z,97097.97
2023-01-29T14:51:20.516Z,97099.72
2023-01-29T14:53:48.242Z,97105.69
2023-01-29T14:56:14.814Z,97101.34
2023-01-29T14:58:42.238Z,97100.94
2023-01-29T15:01:08.981Z,97101.03
2023-01-29T15:03:35.529Z,97101.16
2023-01-29T15:06:03.687Z,97103.59
2023-01-29T15:08:30.733Z,97107.19
2023-01-29T15:10:57.638Z,97100.81
2023-01-29T15:13:26.476Z,97098.56
2023-01-29T15:15:54.125Z,97101.06
2023-01-29T15:18:20.762Z,97098.13
2023-01-29T15:20:49.714Z,97092.50
2023-01-29T15:23:16.481Z,97090.91
2023-01-29T15:25:45.461Z,97090.72
2023-01-29T15:28:12.247Z,97091.41
2023-01-29T15:30:39.205Z,97075.44
2023-01-29T15:33:06.119Z,97081.34
2023-01-29T15:35:34.911Z,97076.94
2023-01-29T15:38:01.597Z,97081.00
2023-01-29T15:40:28.111Z,97084.16
2023-01-29T15:42:56.700Z,97080.38
2023-01-29T15:45:23.863Z,97070.78
2023-01-29T15:47:50.516Z,97076.75
2023-01-29T15:50:17.268Z,97080.59
2023-01-29T15:52:44.147Z,97073.28
2023-01-29T15:55:10.924Z,97084.75
2023-01-29T15:57:37.695Z,97080.84
2023-01-29T16:00:04.290Z,97090.22
2023-01-29T16:02:31.909Z,97088.13
2023-01-29T16:04:58.721Z,97089.88
2023-01-29T16:07:25.603Z,97088.69
2023-01-29T16:09:52.656Z,97092.34
2023-01-29T16:12:22.498Z,97095.00
2023-01-29T16:14:49.647Z,97090.16
2023-01-29T16:17:18.049Z,97093.72
2023-01-29T16:19:49.119Z,97101.19
2023-01-29T16:22:15.673Z,97101.34
2023-01-29T16:24:42.294Z,97098.44
2023-01-29T16:27:08.860Z,97100.94
2023-01-29T16:29:35.861Z,97101.50
2023-01-29T16:32:02.620Z,97094.06
2023-01-29T16:34:29.623Z,97096.69
2023-01-29T16:36:56.179Z,97092.72
2023-01-29T16:39:23.272Z,97093.84
2023-01-29T16:41:51.001Z,97092.47
2023-01-29T16:44:17.602Z,97100.66
2023-01-29T16:46:44.472Z,97104.34
2023-01-29T16:49:12.088Z,97108.63
2023-01-29T16:51:40.403Z,97097.59
2023-01-29T16:54:07.003Z,97107.31
2023-01-29T16:56:34.607Z,97110.75
2023-01-29T16:59:13.821Z,97112.88
2023-01-29T17:01:40.296Z,97116.84
2023-01-29T17:04:07.750Z,97108.00
2023-01-29T17:06:35.378Z,97109.28
2023-01-29T17:09:01.991Z,97108.84
2023-01-29T17:11:28.882Z,97109.81
2023-01-29T17:13:56.551Z,97111.88
2023-01-29T17:16:23.723Z,97104.75
2023-01-29T17:18:50.405Z,97105.03
2023-01-29T17:21:17.023Z,97105.44
2023-01-29T17:23:44.423Z,97116.25
2023-01-29T17:26:11.429Z,97116.63
2023-01-29T17:28:38.123Z,97112.97
2023-01-29T17:31:07.208Z,97119.31
2023-01-29T17:39:36.163Z,97125.91
2023-01-29T17:42:03.390Z,97127.53
2023-01-29T17:44:31.024Z,97133.63
2023-01-29T17:46:57.999Z,97125.72
2023-01-29T17:49:24.653Z,97134.72
2023-01-29T17:51:54.111Z,97134.28
2023-01-29T17:54:20.968Z,97131.84
2023-01-29T17:56:47.671Z,97132.75
2023-01-29T17:59:16.942Z,97132.44
2023-01-29T18:01:43.886Z,97130.75
2023-01-29T18:04:15.315Z,97135.88
2023-01-29T18:06:47.654Z,97147.75
2023-01-29T18:09:14.291Z,97139.72
2023-01-29T18:11:41.291Z,97136.03
2023-01-29T18:14:14.527Z,97133.22
2023-01-29T18:16:41.550Z,97136.84
2023-01-29T18:19:08.465Z,97135.97
2023-01-29T18:21:35.335Z,97137.50
2023-01-29T18:24:02.927Z,97137.38
2023-01-29T18:26:29.731Z,97138.34
2023-01-29T18:28:56.631Z,97130.22
2023-01-29T18:31:23.775Z,97128.16
2023-01-29T18:33:54.391Z,97124.50
2023-01-29T18:36:22.782Z,97126.13
2023-01-29T18:38:49.939Z,97138.53
2023-01-29T18:41:17.277Z,97135.91
2023-01-29T18:43:43.958Z,97143.00
2023-01-29T18:46:14.891Z,97128.28
2023-01-29T18:48:43.008Z,97124.22
2023-01-29T18:51:10.610Z,97130.47
2023-01-29T18:53:38.448Z,97126.34
2023-01-29T18:56:07.383Z,97121.97
2023-01-29T18:58:39.595Z,97123.75
2023-01-29T19:01:08.678Z,97128.31
2023-01-29T19:03:35.734Z,97118.41
2023-01-29T19:06:02.378Z,97118.25
2023-01-29T19:08:29.236Z,97117.72
2023-01-29T19:10:55.795Z,97121.44
2023-01-29T19:13:22.654Z,97123.66
2023-01-29T19:15:49.377Z,97120.66
2023-01-29T19:18:16.257Z,97121.59
2023-01-29T19:20:42.804Z,97121.88
2023-01-29T19:23:09.422Z,97125.41
2023-01-29T19:31:41.142Z,97128.34
2023-01-29T19:34:07.764Z,97132.09
2023-01-29T19:36:34.319Z,97132.84
2023-01-29T19:39:01.082Z,97139.09
2023-01-29T19:41:29.688Z,97132.06
2023-01-29T19:43:56.514Z,97135.44
2023-01-29T19:46:31.063Z,97142.09
2023-01-29T19:48:59.798Z,97144.22
2023-01-29T19:51:29.053Z,97147.63
2023-01-29T19:53:55.682Z,97150.88
2023-01-29T19:59:02.744Z,97160.47
2023-01-29T20:01:30.109Z,97160.41
2023-01-29T20:03:57.550Z,97160.91
2023-01-29T20:06:24.198Z,97167.41
2023-01-29T20:08:51.215Z,97160.19
2023-01-29T20:11:18.481Z,97167.09
2023-01-29T20:13:45.382Z,97166.66
2023-01-29T20:16:13.687Z,97174.63
2023-01-29T20:18:42.470Z,97171.84
2023-01-29T20:21:09.248Z,97170.22
2023-01-29T20:23:38.743Z,97168.81
2023-01-29T20:26:07.604Z,97167.91
2023-01-29T20:28:36.909Z,97177.06
2023-01-29T20:31:03.868Z,97178.94
2023-01-29T20:33:31.266Z,97173.56
2023-01-29T20:35:57.878Z,97181.88
2023-01-29T20:38:24.807Z,97182.97
2023-01-29T20:40:51.647Z,97185.16
2023-01-29T20:43:18.506Z,97188.47
2023-01-29T20:54:31.818Z,97199.16
2023-01-29T20:56:59.202Z,97193.19
2023-01-29T20:59:25.746Z,97202.03
2023-01-29T21:01:52.441Z,97195.31
2023-01-29T21:04:19.024Z,97199.72
2023-01-29T21:06:47.831Z,97204.28
2023-01-29T21:09:14.377Z,97205.81
2023-01-29T21:11:40.828Z,97205.72
2023-01-29T21:14:09.098Z,97196.84
2023-01-29T21:16:36.227Z,97204.00
2023-01-29T21:19:03.539Z,97202.72
2023-01-29T21:21:31.237Z,97200.94
2023-01-29T21:23:57.915Z,97210.09
2023-01-29T21:26:25.603Z,97204.09
2023-01-29T21:28:52.535Z,97200.38
2023-01-29T21:31:19.992Z,97198.03
2023-01-29T21:33:46.844Z,97202.22
2023-01-29T21:36:13.477Z,97202.81
2023-01-29T21:38:40.095Z,97207.38
2023-01-29T21:41:06.627Z,97208.63
2023-01-29T21:43:33.150Z,97201.13
2023-01-29T21:45:59.793Z,97195.66
2023-01-29T21:51:41.630Z,97195.38
2023-01-29T21:54:08.195Z,97185.81
2023-01-29T21:56:35.007Z,97185.66
2023-01-29T21:59:01.860Z,97196.91
2023-01-29T22:01:37.979Z,97188.75
2023-01-29T22:04:07.633Z,97184.13
2023-01-29T22:06:34.536Z,97187.56
2023-01-29T22:09:01.331Z,97182.28
2023-01-29T22:11:28.361Z,97186.28
2023-01-29T22:13:55.029Z,97181.59
2023-01-29T22:16:23.261Z,97180.22
2023-01-29T22:18:50.088Z,97174.19
2023-01-29T22:21:16.617Z,97178.06
2023-01-29T22:23:44.135Z,97174.28
2023-01-29T22:26:10.727Z,97180.03
2023-01-29T22:28:39.951Z,97170.63
2023-01-29T22:31:08.745Z,97174.63
2023-01-29T22:33:35.577Z,97178.28
2023-01-29T22:36:02.149Z,97175.53
2023-01-29T22:38:28.937Z,97165.13
2023-01-29T22:40:56.024Z,97164.97
2023-01-29T22:43:23.588Z,97161.28
2023-01-29T22:45:50.437Z,97154.63
2023-01-29T22:48:19.247Z,97155.16
2023-01-29T22:50:46.108Z,97147.34
2023-01-29T22:53:12.623Z,97145.53
2023-01-29T22:55:45.131Z,97130.00
2023-01-29T22:58:12.042Z,97137.44
2023-01-29T23:00:39.534Z,97132.97
2023-01-29T23:03:06.354Z,97131.28
2023-01-29T23:05:33.093Z,97125.00
2023-01-29T23:08:00.376Z,97118.50
2023-01-29T23:10:27.233Z,97119.88
2023-01-29T23:12:56.210Z,97117.66
2023-01-29T23:15:23.037Z,97108.63
2023-01-29T23:17:49.724Z,97114.81
2023-01-29T23:20:16.944Z,97110.75
2023-01-29T23:22:43.829Z,97100.16
2023-01-29T23:25:12.857Z,97103.47
2023-01-29T23:27:39.704Z,97103.59
2023-01-29T23:30:08.520Z,97099.31
2023-01-29T23:32:35.546Z,97092.53
2023-01-29T23:35:02.101Z,97088.97
2023-01-29T23:37:28.926Z,97086.59
2023-01-29T23:39:55.434Z,97094.03
2023-01-29T23:42:21.954Z,97085.03
2023-01-29T23:44:48.765Z,97090.25
2023-01-29T23:47:15.659Z,97087.41
2023-01-29T23:49:42.526Z,97085.53
2023-01-29T23:52:09.114Z,97078.31
2023-01-29T23:54:35.794Z,97080.59
2023-01-29T23:57:02.508Z,97070.91
2023-01-29T23:59:29.373Z,97077.06
